BAW9171 EGLL-EGKK
Flight info
| Callsign | BAW9171 |
|---|---|
| Flight time | 0h 25m |
| Altitude | 8000 |
| Route | MID DCT WILLO |
| Aircraft | B772/H-SDE2E3FGHIJ5LORVWXY/LB1D1 |
Departure
| Time | 2026-05-05 21:31 |
|---|---|
| Airport | London Heathrow Airport (EGLL) |
Arrival
| Time | 2026-05-05 21:56 |
|---|---|
| Airport | London Gatwick Airport (EGKK) |
| Time | Latitude | Longitude | Altitude | Speed | Heading |
|---|---|---|---|---|---|
| 2026-05-05 21:09 | 51.46846 | -0.48024 | 95 ft | 0 kts | 269° |
| 2026-05-05 21:24 | 51.46846 | -0.48017 | 91 ft | 4 kts | 269° |
| 2026-05-05 21:24 | 51.46846 | -0.47974 | 92 ft | 4 kts | 269° |
| 2026-05-05 21:25 | 51.46847 | -0.47930 | 93 ft | 4 kts | 269° |
| 2026-05-05 21:25 | 51.46850 | -0.47897 | 94 ft | 2 kts | 234° |
| 2026-05-05 21:25 | 51.46863 | -0.47879 | 93 ft | 3 kts | 196° |
| 2026-05-05 21:25 | 51.46877 | -0.47874 | 94 ft | 2 kts | 184° |
| 2026-05-05 21:26 | 51.46888 | -0.47874 | 92 ft | 2 kts | 179° |
| 2026-05-05 21:27 | 51.46868 | -0.47872 | 93 ft | 8 kts | 177° |
| 2026-05-05 21:28 | 51.46816 | -0.47868 | 91 ft | 8 kts | 177° |
| 2026-05-05 21:28 | 51.46764 | -0.47868 | 91 ft | 8 kts | 179° |
| 2026-05-05 21:28 | 51.46707 | -0.47868 | 91 ft | 9 kts | 182° |
| 2026-05-05 21:28 | 51.46661 | -0.47926 | 95 ft | 9 kts | 245° |
| 2026-05-05 21:29 | 51.46653 | -0.48073 | 91 ft | 15 kts | 269° |
| 2026-05-05 21:29 | 51.46652 | -0.48240 | 91 ft | 15 kts | 269° |
| 2026-05-05 21:29 | 51.46650 | -0.48379 | 93 ft | 10 kts | 269° |
| 2026-05-05 21:29 | 51.46614 | -0.48463 | 93 ft | 10 kts | 193° |
| 2026-05-05 21:30 | 51.46591 | -0.48465 | 96 ft | 2 kts | 184° |
| 2026-05-05 21:30 | 51.46567 | -0.48466 | 94 ft | 5 kts | 180° |
| 2026-05-05 21:30 | 51.46527 | -0.48466 | 96 ft | 7 kts | 180° |
| 2026-05-05 21:30 | 51.46484 | -0.48428 | 96 ft | 8 kts | 110° |
| 2026-05-05 21:31 | 51.46481 | -0.48295 | 93 ft | 24 kts | 91° |
| 2026-05-05 21:31 | 51.46478 | -0.47775 | 91 ft | 73 kts | 90° |
| 2026-05-05 21:31 | 51.46485 | -0.46462 | 143 ft | 151 kts | 88° |
| 2026-05-05 21:31 | 51.46491 | -0.44739 | 963 ft | 157 kts | 88° |
| 2026-05-05 21:32 | 51.46498 | -0.43028 | 2141 ft | 154 kts | 88° |
| 2026-05-05 21:32 | 51.46494 | -0.41286 | 3127 ft | 160 kts | 94° |
| 2026-05-05 21:32 | 51.45992 | -0.39575 | 3611 ft | 188 kts | 124° |
| 2026-05-05 21:32 | 51.45070 | -0.37813 | 3854 ft | 225 kts | 139° |
| 2026-05-05 21:33 | 51.43533 | -0.36743 | 4115 ft | 258 kts | 161° |
| 2026-05-05 21:33 | 51.41781 | -0.35799 | 4945 ft | 268 kts | 163° |
| 2026-05-05 21:33 | 51.39927 | -0.35728 | 5822 ft | 277 kts | 197° |
| 2026-05-05 21:33 | 51.38187 | -0.36969 | 6878 ft | 274 kts | 207° |
| 2026-05-05 21:34 | 51.36444 | -0.38350 | 7655 ft | 282 kts | 207° |
| 2026-05-05 21:34 | 51.34653 | -0.39733 | 7996 ft | 286 kts | 207° |
| 2026-05-05 21:34 | 51.32854 | -0.41105 | 7961 ft | 286 kts | 206° |
| 2026-05-05 21:34 | 51.31114 | -0.42449 | 7986 ft | 288 kts | 207° |
| 2026-05-05 21:35 | 51.29257 | -0.43909 | 7966 ft | 289 kts | 207° |
| 2026-05-05 21:35 | 51.27458 | -0.45326 | 7966 ft | 288 kts | 207° |
| 2026-05-05 21:35 | 51.25670 | -0.46755 | 7964 ft | 287 kts | 207° |
| 2026-05-05 21:35 | 51.23880 | -0.48187 | 7970 ft | 287 kts | 207° |
| 2026-05-05 21:36 | 51.22088 | -0.49604 | 7963 ft | 288 kts | 207° |
| 2026-05-05 21:36 | 51.20288 | -0.51000 | 7971 ft | 288 kts | 207° |
| 2026-05-05 21:36 | 51.18487 | -0.52393 | 7969 ft | 288 kts | 207° |
| 2026-05-05 21:36 | 51.16722 | -0.53757 | 7958 ft | 280 kts | 207° |
| 2026-05-05 21:37 | 51.14995 | -0.55092 | 7951 ft | 266 kts | 207° |
| 2026-05-05 21:37 | 51.13383 | -0.56338 | 7948 ft | 257 kts | 206° |
| 2026-05-05 21:37 | 51.11783 | -0.57574 | 7958 ft | 255 kts | 207° |
| 2026-05-05 21:37 | 51.10187 | -0.58804 | 7964 ft | 255 kts | 206° |
| 2026-05-05 21:38 | 51.08574 | -0.59978 | 7967 ft | 256 kts | 205° |
| 2026-05-05 21:38 | 51.06947 | -0.61135 | 7970 ft | 256 kts | 205° |
| 2026-05-05 21:38 | 51.05317 | -0.62286 | 7968 ft | 255 kts | 203° |
| 2026-05-05 21:38 | 51.03603 | -0.62727 | 7967 ft | 252 kts | 169° |
| 2026-05-05 21:39 | 51.02079 | -0.61481 | 7968 ft | 250 kts | 130° |
| 2026-05-05 21:39 | 51.01346 | -0.59061 | 7970 ft | 246 kts | 92° |
| 2026-05-05 21:39 | 51.01645 | -0.56462 | 7967 ft | 238 kts | 67° |
| 2026-05-05 21:39 | 51.01912 | -0.54817 | 7956 ft | 242 kts | 86° |
| 2026-05-05 21:40 | 51.01680 | -0.52103 | 7988 ft | 250 kts | 99° |
| 2026-05-05 21:40 | 51.01356 | -0.49374 | 7965 ft | 250 kts | 97° |
| 2026-05-05 21:40 | 51.01073 | -0.46658 | 7958 ft | 248 kts | 96° |
| 2026-05-05 21:40 | 51.00807 | -0.43963 | 7964 ft | 246 kts | 96° |
| 2026-05-05 21:41 | 51.00550 | -0.41281 | 7965 ft | 245 kts | 96° |
| 2026-05-05 21:41 | 51.00299 | -0.38613 | 7956 ft | 244 kts | 96° |
| 2026-05-05 21:41 | 51.00051 | -0.35951 | 7962 ft | 244 kts | 96° |
| 2026-05-05 21:41 | 50.99805 | -0.33290 | 7975 ft | 244 kts | 96° |
| 2026-05-05 21:42 | 50.99558 | -0.30617 | 7972 ft | 245 kts | 96° |
| 2026-05-05 21:42 | 50.99310 | -0.27924 | 7969 ft | 247 kts | 96° |
| 2026-05-05 21:42 | 50.99060 | -0.25227 | 7966 ft | 248 kts | 96° |
| 2026-05-05 21:42 | 50.98809 | -0.22511 | 7977 ft | 249 kts | 96° |
| 2026-05-05 21:43 | 50.98560 | -0.19792 | 7967 ft | 249 kts | 96° |
| 2026-05-05 21:43 | 50.98310 | -0.17068 | 7958 ft | 249 kts | 96° |
| 2026-05-05 21:43 | 50.98062 | -0.14366 | 7772 ft | 246 kts | 96° |
| 2026-05-05 21:43 | 50.97818 | -0.11717 | 7496 ft | 245 kts | 96° |
| 2026-05-05 21:44 | 50.97358 | -0.09138 | 7112 ft | 247 kts | 118° |
| 2026-05-05 21:44 | 50.96146 | -0.07195 | 6764 ft | 252 kts | 149° |
| 2026-05-05 21:44 | 50.94551 | -0.06110 | 6531 ft | 249 kts | 159° |
| 2026-05-05 21:44 | 50.92900 | -0.05215 | 6275 ft | 251 kts | 160° |
| 2026-05-05 21:45 | 50.91249 | -0.04352 | 6088 ft | 248 kts | 161° |
| 2026-05-05 21:45 | 50.89615 | -0.03519 | 6028 ft | 245 kts | 164° |
| 2026-05-05 21:45 | 50.87922 | -0.03434 | 5995 ft | 248 kts | 195° |
| 2026-05-05 21:45 | 50.86411 | -0.04732 | 5998 ft | 249 kts | 226° |
| 2026-05-05 21:46 | 50.85522 | -0.07025 | 5988 ft | 244 kts | 257° |
| 2026-05-05 21:46 | 50.85495 | -0.09633 | 5990 ft | 236 kts | 289° |
| 2026-05-05 21:46 | 50.86180 | -0.11929 | 5996 ft | 229 kts | 303° |
| 2026-05-05 21:46 | 50.87032 | -0.14074 | 5992 ft | 231 kts | 305° |
| 2026-05-05 21:47 | 50.87911 | -0.16211 | 5991 ft | 232 kts | 306° |
| 2026-05-05 21:47 | 50.88798 | -0.18351 | 5999 ft | 234 kts | 306° |
| 2026-05-05 21:47 | 50.89695 | -0.20511 | 5992 ft | 235 kts | 306° |
| 2026-05-05 21:47 | 50.90596 | -0.22670 | 5987 ft | 235 kts | 306° |
| 2026-05-05 21:48 | 50.91499 | -0.24836 | 5892 ft | 237 kts | 306° |
| 2026-05-05 21:48 | 50.92405 | -0.27005 | 5781 ft | 235 kts | 306° |
| 2026-05-05 21:48 | 50.93304 | -0.29162 | 5633 ft | 234 kts | 306° |
| 2026-05-05 21:48 | 50.94198 | -0.31303 | 5505 ft | 232 kts | 306° |
| 2026-05-05 21:49 | 50.95079 | -0.33413 | 5377 ft | 232 kts | 306° |
| 2026-05-05 21:49 | 50.95970 | -0.35546 | 5246 ft | 232 kts | 306° |
| 2026-05-05 21:49 | 50.96860 | -0.37681 | 5131 ft | 232 kts | 306° |
| 2026-05-05 21:49 | 50.97754 | -0.39810 | 5068 ft | 231 kts | 308° |
| 2026-05-05 21:50 | 50.98887 | -0.41561 | 5004 ft | 227 kts | 332° |
| 2026-05-05 21:50 | 51.00304 | -0.42700 | 4931 ft | 229 kts | 335° |
| 2026-05-05 21:50 | 51.01722 | -0.43803 | 4775 ft | 222 kts | 335° |
| 2026-05-05 21:50 | 51.03097 | -0.44874 | 4148 ft | 221 kts | 335° |
| 2026-05-05 21:51 | 51.04505 | -0.45963 | 3629 ft | 229 kts | 336° |
| 2026-05-05 21:51 | 51.05934 | -0.47062 | 3395 ft | 226 kts | 335° |
| 2026-05-05 21:51 | 51.07362 | -0.47906 | 3198 ft | 215 kts | 355° |
| 2026-05-05 21:51 | 51.08770 | -0.47471 | 3091 ft | 201 kts | 31° |
| 2026-05-05 21:52 | 51.10812 | -0.44829 | 3124 ft | 184 kts | 52° |
| 2026-05-05 21:52 | 51.11320 | -0.43003 | 3079 ft | 182 kts | 71° |
| 2026-05-05 21:52 | 51.11726 | -0.41030 | 2831 ft | 186 kts | 73° |
| 2026-05-05 21:53 | 51.12047 | -0.39048 | 2600 ft | 182 kts | 76° |
| 2026-05-05 21:53 | 51.12318 | -0.37119 | 2344 ft | 176 kts | 77° |
| 2026-05-05 21:53 | 51.12569 | -0.35299 | 2107 ft | 163 kts | 77° |
| 2026-05-05 21:53 | 51.12804 | -0.33595 | 1884 ft | 154 kts | 77° |
| 2026-05-05 21:54 | 51.13031 | -0.31952 | 1690 ft | 150 kts | 77° |
| 2026-05-05 21:54 | 51.13247 | -0.30383 | 1483 ft | 141 kts | 77° |
| 2026-05-05 21:54 | 51.13461 | -0.28828 | 1288 ft | 139 kts | 77° |
| 2026-05-05 21:54 | 51.13661 | -0.27379 | 1073 ft | 129 kts | 77° |
| 2026-05-05 21:55 | 51.13850 | -0.26008 | 899 ft | 126 kts | 77° |
| 2026-05-05 21:55 | 51.14039 | -0.24647 | 749 ft | 125 kts | 77° |
| 2026-05-05 21:55 | 51.14228 | -0.23278 | 563 ft | 127 kts | 78° |
| 2026-05-05 21:55 | 51.14414 | -0.21914 | 406 ft | 126 kts | 76° |
| 2026-05-05 21:56 | 51.14603 | -0.20553 | 248 ft | 126 kts | 77° |
| 2026-05-05 21:56 | 51.14785 | -0.19247 | 220 ft | 107 kts | 78° |
| 2026-05-05 21:56 | 51.14911 | -0.18329 | 214 ft | 56 kts | 77° |
| 2026-05-05 21:56 | 51.14976 | -0.17990 | 220 ft | 26 kts | 62° |
| 2026-05-05 21:57 | 51.15048 | -0.17817 | 221 ft | 13 kts | 53° |
| 2026-05-05 21:57 | 51.15065 | -0.17787 | 215 ft | 0 kts | 39° |
| 2026-05-05 21:58 | 51.15066 | -0.17786 | 215 ft | 2 kts | 39° |
| 2026-05-05 21:58 | 51.15099 | -0.17765 | 210 ft | 6 kts | 9° |
| 2026-05-05 21:59 | 51.15139 | -0.17768 | 215 ft | 6 kts | 355° |
| 2026-05-05 21:59 | 51.15179 | -0.17774 | 213 ft | 6 kts | 355° |
| 2026-05-05 21:59 | 51.15223 | -0.17776 | 213 ft | 9 kts | 7° |
| 2026-05-05 21:59 | 51.15269 | -0.17670 | 214 ft | 14 kts | 76° |
| 2026-05-05 22:00 | 51.15292 | -0.17521 | 216 ft | 14 kts | 78° |
| 2026-05-05 22:00 | 51.15302 | -0.17428 | 216 ft | 0 kts | 79° |
| 2026-05-05 22:00 | 51.15302 | -0.17425 | 217 ft | 3 kts | 77° |
| 2026-05-05 22:00 | 51.15345 | -0.17360 | 216 ft | 11 kts | 47° |
| 2026-05-05 22:01 | 51.15391 | -0.17271 | 218 ft | 11 kts | 17° |
| 2026-05-05 22:01 | 51.15465 | -0.17288 | 215 ft | 11 kts | 348° |
| 2026-05-05 22:01 | 51.15539 | -0.17313 | 219 ft | 11 kts | 348° |
| 2026-05-05 22:01 | 51.15603 | -0.17273 | 219 ft | 11 kts | 59° |
| 2026-05-05 22:02 | 51.15626 | -0.17160 | 216 ft | 10 kts | 77° |
| 2026-05-05 22:02 | 51.15640 | -0.17062 | 211 ft | 9 kts | 77° |
| 2026-05-05 22:02 | 51.15652 | -0.16964 | 218 ft | 9 kts | 78° |
| 2026-05-05 22:02 | 51.15666 | -0.16867 | 217 ft | 9 kts | 76° |
| 2026-05-05 22:03 | 51.15680 | -0.16773 | 217 ft | 7 kts | 77° |
| 2026-05-05 22:03 | 51.15677 | -0.16718 | 212 ft | 3 kts | 127° |
| 2026-05-05 22:03 | 51.15657 | -0.16700 | 215 ft | 3 kts | 157° |
| 2026-05-05 22:03 | 51.15635 | -0.16689 | 211 ft | 3 kts | 165° |
| 2026-05-05 22:04 | 51.15619 | -0.16682 | 209 ft | 0 kts | 165° |